createdAt,value
2023-02-09T00:00:09.590Z,-1.88
2023-02-09T00:04:04.216Z,-1.96
2023-02-09T00:07:57.093Z,-1.88
2023-02-09T00:12:08.484Z,-1.92
2023-02-09T00:16:02.431Z,-2.03
2023-02-09T00:19:55.409Z,-2.09
2023-02-09T00:23:48.661Z,-2.26
2023-02-09T00:27:41.229Z,-2.13
2023-02-09T00:31:34.716Z,-1.95
2023-02-09T00:35:27.577Z,-2.01
2023-02-09T00:39:20.440Z,-2.14
2023-02-09T00:43:13.369Z,-2.02
2023-02-09T00:47:07.391Z,-2.09
2023-02-09T00:51:00.303Z,-1.86
2023-02-09T00:54:52.869Z,-1.96
2023-02-09T00:58:45.472Z,-1.89
2023-02-09T01:02:38.241Z,-1.92
2023-02-09T01:06:31.530Z,-1.96
2023-02-09T01:10:24.446Z,-1.86
2023-02-09T01:14:18.147Z,-1.75
2023-02-09T01:18:10.829Z,-1.85
2023-02-09T01:22:03.706Z,-1.85
2023-02-09T01:26:04.595Z,-1.86
2023-02-09T01:29:57.247Z,-1.89
2023-02-09T01:33:50.866Z,-2.13
2023-02-09T01:37:43.471Z,-2.29
2023-02-09T01:41:37.770Z,-2.23
2023-02-09T01:45:35.514Z,-2.41
2023-02-09T01:49:28.460Z,-2.54
2023-02-09T01:53:22.336Z,-2.51
2023-02-09T01:57:22.848Z,-2.50
2023-02-09T02:01:19.171Z,-2.65
2023-02-09T02:05:12.429Z,-2.72
2023-02-09T02:09:12.294Z,-2.85
2023-02-09T02:13:05.559Z,-2.95
2023-02-09T02:17:20.285Z,-3.09
2023-02-09T02:21:43.969Z,-3.26
2023-02-09T02:26:12.499Z,-3.15
2023-02-09T02:30:23.853Z,-3.21
2023-02-09T02:34:38.684Z,-3.37
2023-02-09T02:38:55.091Z,-3.15
2023-02-09T02:42:53.856Z,-2.82
2023-02-09T02:46:51.841Z,-2.97
2023-02-09T02:50:53.500Z,-2.75
2023-02-09T02:54:57.576Z,-2.82
2023-02-09T02:58:52.337Z,-2.92
2023-02-09T03:02:50.381Z,-2.89
2023-02-09T03:06:43.201Z,-2.91
2023-02-09T03:10:38.622Z,-2.97
2023-02-09T03:14:48.268Z,-3.09
2023-02-09T03:19:20.581Z,-3.07
2023-02-09T03:23:33.226Z,-3.06
2023-02-09T03:27:29.990Z,-2.93
2023-02-09T03:31:23.918Z,-3.02
2023-02-09T03:35:20.173Z,-3.03
2023-02-09T03:39:12.948Z,-2.84
2023-02-09T03:43:05.648Z,-2.86
2023-02-09T03:47:02.620Z,-2.82
2023-02-09T03:50:56.208Z,-2.82
2023-02-09T03:54:48.961Z,-2.84
2023-02-09T03:58:41.707Z,-3.12
2023-02-09T04:02:34.656Z,-3.23
2023-02-09T04:06:28.866Z,-3.40
2023-02-09T04:10:21.697Z,-3.13
2023-02-09T04:14:15.644Z,-3.00
2023-02-09T04:18:08.394Z,-3.00
2023-02-09T04:22:01.633Z,-2.88
2023-02-09T04:25:54.297Z,-2.77
2023-02-09T04:29:46.857Z,-3.06
2023-02-09T04:33:39.908Z,-3.48
2023-02-09T04:37:32.538Z,-3.57
2023-02-09T04:41:25.665Z,-4.14
2023-02-09T04:45:18.713Z,-4.30
2023-02-09T04:49:11.561Z,-4.33
2023-02-09T04:53:04.409Z,-4.62
2023-02-09T04:57:15.672Z,-4.61
2023-02-09T05:01:10.408Z,-4.60
2023-02-09T05:05:03.146Z,-4.61
2023-02-09T05:08:55.925Z,-4.54
2023-02-09T05:12:48.805Z,-4.61
2023-02-09T05:16:41.705Z,-4.68
2023-02-09T05:20:34.773Z,-4.81
2023-02-09T05:24:27.556Z,-4.85
2023-02-09T05:28:20.087Z,-4.86
2023-02-09T05:32:13.679Z,-4.72
2023-02-09T05:36:09.801Z,-4.68
2023-02-09T05:40:02.725Z,-4.75
2023-02-09T05:43:55.625Z,-4.74
2023-02-09T05:47:48.233Z,-4.69
2023-02-09T05:51:40.956Z,-4.89
2023-02-09T05:55:33.692Z,-4.69
2023-02-09T05:59:26.406Z,-4.76
2023-02-09T06:03:19.310Z,-4.61
2023-02-09T06:07:12.208Z,-4.95
2023-02-09T06:11:06.436Z,-4.69
2023-02-09T06:14:59.106Z,-5.06
2023-02-09T06:18:51.575Z,-4.79
2023-02-09T06:22:44.317Z,-4.85
2023-02-09T06:26:37.168Z,-4.69
2023-02-09T06:30:29.988Z,-4.68
2023-02-09T06:34:22.694Z,-4.58
2023-02-09T06:38:15.410Z,-4.78
2023-02-09T06:42:08.716Z,-4.69
2023-02-09T06:46:09.189Z,-4.76
2023-02-09T06:50:02.304Z,-4.82
2023-02-09T06:53:55.566Z,-4.72
2023-02-09T06:57:48.548Z,-4.69
2023-02-09T07:01:45.775Z,-4.62
2023-02-09T07:05:38.756Z,-4.53
2023-02-09T07:09:31.740Z,-4.56
2023-02-09T07:13:24.638Z,-4.51
2023-02-09T07:17:17.446Z,-4.34
2023-02-09T07:21:18.597Z,-4.26
2023-02-09T07:25:11.311Z,-4.03
2023-02-09T07:29:04.312Z,-3.96
2023-02-09T07:32:57.636Z,-3.74
2023-02-09T07:36:50.495Z,-3.44
2023-02-09T07:40:47.038Z,-3.20
2023-02-09T07:44:39.857Z,-3.13
2023-02-09T07:48:33.978Z,-3.06
2023-02-09T07:52:26.907Z,-2.97
2023-02-09T07:56:19.923Z,-2.74
2023-02-09T08:00:13.410Z,-2.44
2023-02-09T08:04:11.639Z,-2.10
2023-02-09T08:08:04.400Z,-1.78
2023-02-09T08:12:03.397Z,-1.58
2023-02-09T08:15:58.435Z,-1.30
2023-02-09T08:20:00.539Z,-1.08
2023-02-09T08:23:59.047Z,-0.98
2023-02-09T08:27:52.537Z,-0.78
2023-02-09T08:32:05.316Z,-0.65
2023-02-09T08:35:58.045Z,-0.60
2023-02-09T08:39:50.943Z,-0.62
2023-02-09T08:43:51.758Z,-0.51
2023-02-09T08:47:44.516Z,-0.16
2023-02-09T08:51:37.516Z,0.18
2023-02-09T08:55:31.745Z,0.45
2023-02-09T08:59:24.713Z,0.63
2023-02-09T09:03:17.892Z,0.69
2023-02-09T09:07:10.442Z,0.83
2023-02-09T09:11:03.820Z,0.98
2023-02-09T09:14:56.583Z,1.12
2023-02-09T09:18:49.525Z,1.25
2023-02-09T09:22:42.447Z,1.25
2023-02-09T09:26:35.662Z,1.32
2023-02-09T09:30:28.327Z,1.32
2023-02-09T09:34:21.444Z,1.45
2023-02-09T09:38:14.112Z,1.38
2023-02-09T09:42:07.187Z,1.45
2023-02-09T09:46:01.075Z,1.47
2023-02-09T09:49:54.079Z,1.59
2023-02-09T09:53:51.433Z,1.52
2023-02-09T09:57:45.353Z,1.62
2023-02-09T10:01:38.027Z,1.81
2023-02-09T10:05:38.334Z,1.71
2023-02-09T10:09:49.706Z,1.87
2023-02-09T10:13:51.763Z,1.76
2023-02-09T10:17:44.403Z,1.71
2023-02-09T10:21:37.230Z,1.74
2023-02-09T10:25:51.881Z,1.94
2023-02-09T10:29:44.698Z,2.07
2023-02-09T10:33:41.934Z,2.07
2023-02-09T10:37:34.529Z,2.12
2023-02-09T10:41:29.005Z,2.20
2023-02-09T10:45:27.044Z,1.85
2023-02-09T10:49:33.129Z,2.28
2023-02-09T10:53:35.589Z,1.97
2023-02-09T10:57:39.139Z,2.04
2023-02-09T11:01:39.127Z,2.01
2023-02-09T11:05:35.047Z,2.05
2023-02-09T11:09:31.774Z,2.03
2023-02-09T11:13:26.742Z,2.08
2023-02-09T11:17:27.665Z,2.10
2023-02-09T11:21:59.669Z,2.08
2023-02-09T11:26:04.391Z,2.11
2023-02-09T11:30:26.387Z,2.10
2023-02-09T11:34:49.394Z,2.20
2023-02-09T11:39:14.746Z,2.14
2023-02-09T11:43:31.185Z,2.33
2023-02-09T11:47:41.720Z,2.42
2023-02-09T11:51:39.795Z,2.20
2023-02-09T11:55:44.823Z,2.14
2023-02-09T11:59:41.353Z,2.28
2023-02-09T12:03:34.155Z,2.31
2023-02-09T12:07:57.721Z,2.33
2023-02-09T12:12:07.950Z,2.28
2023-02-09T12:16:07.888Z,2.35
2023-02-09T12:20:02.302Z,2.45
2023-02-09T12:23:55.237Z,2.73
2023-02-09T12:28:35.328Z,2.84
2023-02-09T12:32:43.422Z,2.70
2023-02-09T12:36:36.329Z,2.98
2023-02-09T12:40:37.510Z,2.81
2023-02-09T12:44:30.246Z,2.79
2023-02-09T12:48:23.045Z,2.80
2023-02-09T12:52:17.332Z,2.73
2023-02-09T12:56:33.338Z,2.91
2023-02-09T13:00:34.271Z,2.90
2023-02-09T13:04:28.010Z,2.90
2023-02-09T13:08:28.597Z,2.93
2023-02-09T13:12:30.765Z,2.88
2023-02-09T13:16:23.740Z,2.83
2023-02-09T13:20:50.496Z,2.97
2023-02-09T13:25:24.721Z,2.96
2023-02-09T13:29:22.270Z,2.86
2023-02-09T13:33:33.882Z,2.76
2023-02-09T13:37:36.047Z,2.93
2023-02-09T13:41:36.480Z,2.76
2023-02-09T13:45:30.441Z,2.77
2023-02-09T13:49:24.406Z,2.70
2023-02-09T13:53:19.588Z,2.76
2023-02-09T13:57:25.171Z,2.72
2023-02-09T14:01:28.015Z,2.59
2023-02-09T14:05:31.117Z,2.56
2023-02-09T14:09:32.157Z,2.49
2023-02-09T14:13:34.297Z,2.57
2023-02-09T14:17:31.454Z,2.52
2023-02-09T14:21:44.396Z,2.52
2023-02-09T14:25:37.667Z,2.48
2023-02-09T14:29:36.733Z,2.52
2023-02-09T14:33:31.443Z,2.73
2023-02-09T14:37:24.014Z,2.73
2023-02-09T14:41:32.111Z,2.72
2023-02-09T14:45:27.644Z,2.80
2023-02-09T14:49:21.340Z,2.60
2023-02-09T14:53:16.548Z,2.67
2023-02-09T14:57:11.449Z,2.39
2023-02-09T15:01:04.490Z,2.46
2023-02-09T15:04:57.203Z,2.25
2023-02-09T15:08:50.139Z,2.11
2023-02-09T15:12:42.876Z,2.01
2023-02-09T15:16:35.877Z,1.93
2023-02-09T15:20:31.409Z,1.87
2023-02-09T15:24:24.592Z,1.85
2023-02-09T15:28:28.847Z,1.81
2023-02-09T15:32:23.521Z,1.70
2023-02-09T15:36:19.654Z,1.66
2023-02-09T15:40:12.855Z,1.56
2023-02-09T15:44:37.495Z,1.42
2023-02-09T15:48:34.720Z,1.29
2023-02-09T15:52:27.534Z,1.19
2023-02-09T15:56:20.826Z,1.11
2023-02-09T16:00:26.142Z,1.05
2023-02-09T16:04:19.569Z,0.92
2023-02-09T16:08:20.237Z,0.90
2023-02-09T16:12:13.496Z,0.81
2023-02-09T16:16:16.543Z,0.77
2023-02-09T16:20:11.184Z,0.74
2023-02-09T16:24:06.586Z,0.69
2023-02-09T16:27:59.939Z,0.66
2023-02-09T16:31:54.709Z,0.53
2023-02-09T16:35:57.391Z,0.45
2023-02-09T16:39:50.853Z,0.43
2023-02-09T16:43:43.842Z,0.59
2023-02-09T16:47:37.029Z,0.57
2023-02-09T16:51:30.290Z,0.59
2023-02-09T16:55:27.935Z,0.57
2023-02-09T16:59:21.041Z,0.56
2023-02-09T17:03:22.427Z,0.57
2023-02-09T17:07:15.785Z,0.49
2023-02-09T17:11:19.927Z,0.42
2023-02-09T17:15:28.930Z,0.42
2023-02-09T17:19:23.967Z,0.57
2023-02-09T17:23:22.926Z,0.54
2023-02-09T17:27:18.573Z,0.54
2023-02-09T17:31:38.240Z,0.70
2023-02-09T17:39:54.538Z,0.29
2023-02-09T17:43:48.601Z,0.21
2023-02-09T17:47:50.493Z,0.24
2023-02-09T17:51:46.408Z,0.12
2023-02-09T17:55:40.051Z,0.04
2023-02-09T17:59:34.003Z,0.01
2023-02-09T18:03:28.324Z,-0.05
2023-02-09T18:07:22.372Z,-0.05
2023-02-09T18:11:17.662Z,0.09
2023-02-09T18:15:27.883Z,0.11
2023-02-09T18:19:23.956Z,0.02
2023-02-09T18:23:17.640Z,-0.16
2023-02-09T18:27:17.526Z,-0.17
2023-02-09T18:31:20.001Z,-0.24
2023-02-09T18:35:22.979Z,-0.37
2023-02-09T18:39:17.602Z,-0.53
2023-02-09T18:43:14.893Z,-0.62
2023-02-09T18:47:11.728Z,-0.84
2023-02-09T18:51:08.586Z,-0.89
2023-02-09T18:55:02.480Z,-0.88
2023-02-09T18:58:56.353Z,-0.85
2023-02-09T19:02:51.524Z,-0.85
2023-02-09T19:06:46.037Z,-0.95
2023-02-09T19:10:40.850Z,-1.08
2023-02-09T19:14:41.231Z,-1.12
2023-02-09T19:18:35.685Z,-1.16
2023-02-09T19:22:43.691Z,-0.96
2023-02-09T19:26:38.214Z,-1.16
2023-02-09T19:30:32.787Z,-1.08
2023-02-09T19:34:31.966Z,-1.17
2023-02-09T19:38:27.501Z,-1.17
2023-02-09T19:42:21.883Z,-1.32
2023-02-09T19:46:17.043Z,-1.29
2023-02-09T19:50:16.077Z,-1.37
2023-02-09T19:54:10.717Z,-1.16
2023-02-09T19:58:04.546Z,-1.12
2023-02-09T20:01:58.963Z,-1.19
2023-02-09T20:05:54.874Z,-1.19
2023-02-09T20:09:52.938Z,-1.54
2023-02-09T20:13:49.587Z,-1.74
2023-02-09T20:17:44.883Z,-1.79
2023-02-09T20:21:39.305Z,-1.96
2023-02-09T20:25:34.396Z,-1.99
2023-02-09T20:29:28.804Z,-2.09
2023-02-09T20:33:27.368Z,-2.09
2023-02-09T20:37:22.637Z,-1.98
2023-02-09T20:41:18.701Z,-2.02
2023-02-09T20:45:36.713Z,-2.02
2023-02-09T20:49:34.852Z,-1.82
2023-02-09T20:53:30.881Z,-1.84
2023-02-09T20:57:30.174Z,-2.02
2023-02-09T21:01:24.536Z,-2.07
2023-02-09T21:05:19.212Z,-2.29
2023-02-09T21:09:15.092Z,-2.12
2023-02-09T21:13:11.590Z,-2.14
2023-02-09T21:17:06.658Z,-2.30
2023-02-09T21:21:01.192Z,-2.37
2023-02-09T21:24:54.194Z,-2.50
2023-02-09T21:28:52.384Z,-2.53
2023-02-09T21:32:45.489Z,-2.68
2023-02-09T21:36:38.912Z,-2.56
2023-02-09T21:40:32.778Z,-2.62
2023-02-09T21:44:25.990Z,-2.62
2023-02-09T21:48:19.347Z,-2.65
2023-02-09T21:52:12.786Z,-2.71
2023-02-09T21:56:09.031Z,-2.50
2023-02-09T22:00:05.601Z,-2.28
2023-02-09T22:03:58.625Z,-2.32
2023-02-09T22:07:51.722Z,-2.23
2023-02-09T22:11:44.872Z,-2.19
2023-02-09T22:15:40.887Z,-2.36
2023-02-09T22:19:33.643Z,-2.58
2023-02-09T22:23:27.183Z,-2.48
2023-02-09T22:27:19.967Z,-2.69
2023-02-09T22:31:20.631Z,-2.85
2023-02-09T22:35:13.434Z,-2.82
2023-02-09T22:39:06.936Z,-2.60
2023-02-09T22:42:59.700Z,-2.53
2023-02-09T22:46:52.316Z,-2.69
2023-02-09T22:50:44.880Z,-2.97
2023-02-09T22:54:37.499Z,-3.03
2023-02-09T22:58:30.177Z,-2.93
2023-02-09T23:02:24.777Z,-2.74
2023-02-09T23:06:23.470Z,-2.75
2023-02-09T23:10:17.173Z,-2.58
2023-02-09T23:14:11.425Z,-2.46
2023-02-09T23:18:04.419Z,-2.68
2023-02-09T23:21:57.023Z,-2.79
2023-02-09T23:25:51.799Z,-2.91
2023-02-09T23:29:44.649Z,-2.89
2023-02-09T23:33:37.876Z,-2.99
2023-02-09T23:37:37.531Z,-2.81
2023-02-09T23:41:30.973Z,-2.77
2023-02-09T23:45:24.030Z,-2.86
2023-02-09T23:49:16.888Z,-2.82
2023-02-09T23:53:09.329Z,-2.71
2023-02-09T23:57:02.183Z,-2.68
